sensor_id;sensor_type;location;lat;lon;timestamp;P1;durP1;ratioP1;P2;durP2;ratioP2
35364;SDS011;21464;48.112;11.530;2023-12-28T00:01:45;2.00;;;1.90;;
35364;SDS011;21464;48.112;11.530;2023-12-28T00:04:12;1.93;;;1.80;;
35364;SDS011;21464;48.112;11.530;2023-12-28T00:06:38;1.60;;;1.50;;
35364;SDS011;21464;48.112;11.530;2023-12-28T00:09:04;2.27;;;1.93;;
35364;SDS011;21464;48.112;11.530;2023-12-28T00:11:30;1.90;;;1.80;;
35364;SDS011;21464;48.112;11.530;2023-12-28T00:13:57;1.90;;;1.80;;
35364;SDS011;21464;48.112;11.530;2023-12-28T00:16:23;2.40;;;2.20;;
35364;SDS011;21464;48.112;11.530;2023-12-28T00:18:49;2.23;;;2.03;;
35364;SDS011;21464;48.112;11.530;2023-12-28T00:21:16;2.83;;;2.50;;
35364;SDS011;21464;48.112;11.530;2023-12-28T00:23:42;2.03;;;1.90;;
35364;SDS011;21464;48.112;11.530;2023-12-28T00:26:08;2.00;;;1.90;;
35364;SDS011;21464;48.112;11.530;2023-12-28T00:28:34;2.10;;;1.90;;
35364;SDS011;21464;48.112;11.530;2023-12-28T00:31:02;3.20;;;2.47;;
35364;SDS011;21464;48.112;11.530;2023-12-28T00:33:28;2.37;;;2.00;;
35364;SDS011;21464;48.112;11.530;2023-12-28T00:35:55;3.27;;;2.40;;
35364;SDS011;21464;48.112;11.530;2023-12-28T00:38:21;2.20;;;2.00;;
35364;SDS011;21464;48.112;11.530;2023-12-28T00:40:47;2.53;;;1.90;;
35364;SDS011;21464;48.112;11.530;2023-12-28T00:43:13;2.27;;;2.13;;
35364;SDS011;21464;48.112;11.530;2023-12-28T00:45:40;2.47;;;2.00;;
35364;SDS011;21464;48.112;11.530;2023-12-28T00:48:06;2.37;;;2.03;;
35364;SDS011;21464;48.112;11.530;2023-12-28T00:50:32;2.47;;;2.27;;
35364;SDS011;21464;48.112;11.530;2023-12-28T00:52:59;2.40;;;2.20;;
35364;SDS011;21464;48.112;11.530;2023-12-28T00:55:25;2.30;;;2.10;;
35364;SDS011;21464;48.112;11.530;2023-12-28T00:57:51;2.30;;;2.10;;
35364;SDS011;21464;48.112;11.530;2023-12-28T01:00:17;3.07;;;2.80;;
35364;SDS011;21464;48.112;11.530;2023-12-28T01:02:45;2.30;;;2.10;;
35364;SDS011;21464;48.112;11.530;2023-12-28T01:05:13;2.23;;;1.87;;
35364;SDS011;21464;48.112;11.530;2023-12-28T01:07:41;1.70;;;1.60;;
35364;SDS011;21464;48.112;11.530;2023-12-28T01:10:07;2.13;;;1.60;;
35364;SDS011;21464;48.112;11.530;2023-12-28T01:12:34;2.37;;;1.80;;
35364;SDS011;21464;48.112;11.530;2023-12-28T01:15:00;2.00;;;1.90;;
35364;SDS011;21464;48.112;11.530;2023-12-28T01:17:26;2.00;;;1.67;;
35364;SDS011;21464;48.112;11.530;2023-12-28T01:19:52;1.90;;;1.80;;
35364;SDS011;21464;48.112;11.530;2023-12-28T01:22:19;2.90;;;1.83;;
35364;SDS011;21464;48.112;11.530;2023-12-28T01:24:48;1.67;;;1.57;;
35364;SDS011;21464;48.112;11.530;2023-12-28T01:27:16;1.70;;;1.60;;
35364;SDS011;21464;48.112;11.530;2023-12-28T01:29:43;2.47;;;1.60;;
35364;SDS011;21464;48.112;11.530;2023-12-28T01:32:10;1.70;;;1.60;;
35364;SDS011;21464;48.112;11.530;2023-12-28T01:34:37;1.63;;;1.53;;
35364;SDS011;21464;48.112;11.530;2023-12-28T01:37:03;2.23;;;1.90;;
35364;SDS011;21464;48.112;11.530;2023-12-28T01:39:30;1.60;;;1.50;;
35364;SDS011;21464;48.112;11.530;2023-12-28T01:41:56;1.65;;;1.52;;
35364;SDS011;21464;48.112;11.530;2023-12-28T01:44:22;1.63;;;1.53;;
35364;SDS011;21464;48.112;11.530;2023-12-28T01:46:48;1.60;;;1.50;;
35364;SDS011;21464;48.112;11.530;2023-12-28T01:49:15;1.53;;;1.43;;
35364;SDS011;21464;48.112;11.530;2023-12-28T01:51:42;1.60;;;1.50;;
35364;SDS011;21464;48.112;11.530;2023-12-28T01:54:08;1.43;;;1.33;;
35364;SDS011;21464;48.112;11.530;2023-12-28T01:56:34;1.70;;;1.60;;
35364;SDS011;21464;48.112;11.530;2023-12-28T01:59:01;1.30;;;1.20;;
35364;SDS011;21464;48.112;11.530;2023-12-28T02:01:27;1.70;;;1.60;;
35364;SDS011;21464;48.112;11.530;2023-12-28T02:03:55;1.50;;;1.40;;
35364;SDS011;21464;48.112;11.530;2023-12-28T02:06:22;2.30;;;1.30;;
35364;SDS011;21464;48.112;11.530;2023-12-28T02:08:49;1.92;;;1.40;;
35364;SDS011;21464;48.112;11.530;2023-12-28T02:11:16;1.30;;;1.30;;
35364;SDS011;21464;48.112;11.530;2023-12-28T02:13:43;1.50;;;1.40;;
35364;SDS011;21464;48.112;11.530;2023-12-28T02:16:11;1.50;;;1.40;;
35364;SDS011;21464;48.112;11.530;2023-12-28T02:18:42;1.40;;;1.40;;
35364;SDS011;21464;48.112;11.530;2023-12-28T02:21:11;1.57;;;1.47;;
35364;SDS011;21464;48.112;11.530;2023-12-28T02:23:38;1.45;;;1.33;;
35364;SDS011;21464;48.112;11.530;2023-12-28T02:26:04;1.48;;;1.30;;
35364;SDS011;21464;48.112;11.530;2023-12-28T02:28:30;1.50;;;1.40;;
35364;SDS011;21464;48.112;11.530;2023-12-28T02:30:57;1.27;;;1.27;;
35364;SDS011;21464;48.112;11.530;2023-12-28T02:33:47;1.50;;;1.40;;
35364;SDS011;21464;48.112;11.530;2023-12-28T02:36:15;1.47;;;1.37;;
35364;SDS011;21464;48.112;11.530;2023-12-28T02:38:44;1.50;;;1.40;;
35364;SDS011;21464;48.112;11.530;2023-12-28T02:41:12;1.50;;;1.40;;
35364;SDS011;21464;48.112;11.530;2023-12-28T02:43:38;1.60;;;1.50;;
35364;SDS011;21464;48.112;11.530;2023-12-28T02:46:05;1.85;;;1.75;;
35364;SDS011;21464;48.112;11.530;2023-12-28T02:48:31;1.57;;;1.47;;
35364;SDS011;21464;48.112;11.530;2023-12-28T02:50:57;1.50;;;1.40;;
35364;SDS011;21464;48.112;11.530;2023-12-28T02:53:24;1.93;;;1.50;;
35364;SDS011;21464;48.112;11.530;2023-12-28T02:55:50;1.47;;;1.37;;
35364;SDS011;21464;48.112;11.530;2023-12-28T02:58:16;1.33;;;1.23;;
35364;SDS011;21464;48.112;11.530;2023-12-28T03:00:43;2.80;;;1.50;;
35364;SDS011;21464;48.112;11.530;2023-12-28T03:03:09;1.57;;;1.47;;
35364;SDS011;21464;48.112;11.530;2023-12-28T03:05:35;2.70;;;1.50;;
35364;SDS011;21464;48.112;11.530;2023-12-28T03:08:01;1.33;;;1.30;;
35364;SDS011;21464;48.112;11.530;2023-12-28T03:10:28;1.50;;;1.40;;
35364;SDS011;21464;48.112;11.530;2023-12-28T03:12:54;1.57;;;1.47;;
35364;SDS011;21464;48.112;11.530;2023-12-28T03:15:21;1.65;;;1.20;;
35364;SDS011;21464;48.112;11.530;2023-12-28T03:17:49;1.57;;;1.47;;
35364;SDS011;21464;48.112;11.530;2023-12-28T03:20:15;1.50;;;1.40;;
35364;SDS011;21464;48.112;11.530;2023-12-28T03:22:43;1.58;;;1.40;;
35364;SDS011;21464;48.112;11.530;2023-12-28T03:25:09;1.47;;;1.30;;
35364;SDS011;21464;48.112;11.530;2023-12-28T03:27:35;1.40;;;1.30;;
35364;SDS011;21464;48.112;11.530;2023-12-28T03:30:02;1.60;;;1.50;;
35364;SDS011;21464;48.112;11.530;2023-12-28T03:32:29;1.60;;;1.50;;
35364;SDS011;21464;48.112;11.530;2023-12-28T03:34:55;1.50;;;1.40;;
35364;SDS011;21464;48.112;11.530;2023-12-28T03:37:22;1.30;;;1.20;;
35364;SDS011;21464;48.112;11.530;2023-12-28T03:39:49;1.43;;;1.30;;
35364;SDS011;21464;48.112;11.530;2023-12-28T03:42:15;1.40;;;1.30;;
35364;SDS011;21464;48.112;11.530;2023-12-28T03:44:42;1.00;;;1.00;;
35364;SDS011;21464;48.112;11.530;2023-12-28T03:47:08;2.57;;;1.40;;
35364;SDS011;21464;48.112;11.530;2023-12-28T03:49:34;1.30;;;1.30;;
35364;SDS011;21464;48.112;11.530;2023-12-28T03:52:01;1.17;;;1.07;;
35364;SDS011;21464;48.112;11.530;2023-12-28T03:54:28;1.50;;;1.30;;
35364;SDS011;21464;48.112;11.530;2023-12-28T03:56:54;1.50;;;1.40;;
35364;SDS011;21464;48.112;11.530;2023-12-28T03:59:20;1.57;;;1.30;;
35364;SDS011;21464;48.112;11.530;2023-12-28T04:01:47;1.10;;;1.10;;
35364;SDS011;21464;48.112;11.530;2023-12-28T04:04:13;1.20;;;1.10;;
35364;SDS011;21464;48.112;11.530;2023-12-28T04:06:39;1.30;;;1.30;;
35364;SDS011;21464;48.112;11.530;2023-12-28T04:09:08;1.33;;;1.23;;
35364;SDS011;21464;48.112;11.530;2023-12-28T04:11:34;1.40;;;1.30;;
35364;SDS011;21464;48.112;11.530;2023-12-28T04:14:00;2.10;;;1.20;;
35364;SDS011;21464;48.112;11.530;2023-12-28T04:16:26;1.07;;;1.07;;
35364;SDS011;21464;48.112;11.530;2023-12-28T04:18:53;1.03;;;1.03;;
35364;SDS011;21464;48.112;11.530;2023-12-28T04:21:20;1.33;;;1.23;;
35364;SDS011;21464;48.112;11.530;2023-12-28T04:23:47;1.15;;;1.05;;
35364;SDS011;21464;48.112;11.530;2023-12-28T04:26:13;1.30;;;1.05;;
35364;SDS011;21464;48.112;11.530;2023-12-28T04:28:40;1.10;;;1.10;;
35364;SDS011;21464;48.112;11.530;2023-12-28T04:31:06;1.17;;;1.10;;
35364;SDS011;21464;48.112;11.530;2023-12-28T04:33:33;1.00;;;1.00;;
35364;SDS011;21464;48.112;11.530;2023-12-28T04:36:03;0.97;;;0.97;;
35364;SDS011;21464;48.112;11.530;2023-12-28T04:38:30;1.10;;;1.10;;
35364;SDS011;21464;48.112;11.530;2023-12-28T04:40:58;1.33;;;1.23;;
35364;SDS011;21464;48.112;11.530;2023-12-28T04:43:25;1.03;;;1.00;;
35364;SDS011;21464;48.112;11.530;2023-12-28T04:45:51;0.90;;;0.90;;
35364;SDS011;21464;48.112;11.530;2023-12-28T04:48:18;1.07;;;1.07;;
35364;SDS011;21464;48.112;11.530;2023-12-28T04:50:47;1.00;;;1.00;;
35364;SDS011;21464;48.112;11.530;2023-12-28T04:53:14;1.57;;;1.03;;
35364;SDS011;21464;48.112;11.530;2023-12-28T04:55:40;1.30;;;1.20;;
35364;SDS011;21464;48.112;11.530;2023-12-28T04:58:07;0.90;;;0.90;;
35364;SDS011;21464;48.112;11.530;2023-12-28T05:00:33;0.83;;;0.83;;
35364;SDS011;21464;48.112;11.530;2023-12-28T05:03:00;0.87;;;0.87;;
35364;SDS011;21464;48.112;11.530;2023-12-28T05:05:26;0.90;;;0.90;;
35364;SDS011;21464;48.112;11.530;2023-12-28T05:07:52;1.83;;;1.00;;
35364;SDS011;21464;48.112;11.530;2023-12-28T05:10:18;0.90;;;0.90;;
35364;SDS011;21464;48.112;11.530;2023-12-28T05:12:45;3.43;;;1.00;;
35364;SDS011;21464;48.112;11.530;2023-12-28T05:15:11;0.90;;;0.90;;
35364;SDS011;21464;48.112;11.530;2023-12-28T05:17:38;0.90;;;0.90;;
35364;SDS011;21464;48.112;11.530;2023-12-28T05:20:04;1.30;;;1.27;;
35364;SDS011;21464;48.112;11.530;2023-12-28T05:22:31;1.03;;;1.00;;
35364;SDS011;21464;48.112;11.530;2023-12-28T05:24:57;1.00;;;1.00;;
35364;SDS011;21464;48.112;11.530;2023-12-28T05:27:23;0.93;;;0.90;;
35364;SDS011;21464;48.112;11.530;2023-12-28T05:29:50;1.63;;;0.90;;
35364;SDS011;21464;48.112;11.530;2023-12-28T05:32:16;1.30;;;1.20;;
35364;SDS011;21464;48.112;11.530;2023-12-28T05:34:42;1.00;;;1.00;;
35364;SDS011;21464;48.112;11.530;2023-12-28T05:37:09;1.10;;;1.10;;
35364;SDS011;21464;48.112;11.530;2023-12-28T05:39:35;1.13;;;1.13;;
35364;SDS011;21464;48.112;11.530;2023-12-28T05:42:01;1.23;;;1.10;;
35364;SDS011;21464;48.112;11.530;2023-12-28T05:44:28;1.07;;;1.07;;
35364;SDS011;21464;48.112;11.530;2023-12-28T05:46:54;1.20;;;1.00;;
35364;SDS011;21464;48.112;11.530;2023-12-28T05:49:20;1.27;;;1.00;;
35364;SDS011;21464;48.112;11.530;2023-12-28T05:51:46;1.00;;;1.00;;
35364;SDS011;21464;48.112;11.530;2023-12-28T05:54:13;1.17;;;1.07;;
35364;SDS011;21464;48.112;11.530;2023-12-28T05:56:39;1.30;;;1.20;;
35364;SDS011;21464;48.112;11.530;2023-12-28T05:59:05;0.97;;;0.87;;
35364;SDS011;21464;48.112;11.530;2023-12-28T06:01:32;1.00;;;1.00;;
35364;SDS011;21464;48.112;11.530;2023-12-28T06:04:07;1.00;;;1.00;;
35364;SDS011;21464;48.112;11.530;2023-12-28T06:06:33;0.93;;;0.93;;
35364;SDS011;21464;48.112;11.530;2023-12-28T06:09:00;2.00;;;1.20;;
35364;SDS011;21464;48.112;11.530;2023-12-28T06:11:26;1.40;;;1.30;;
35364;SDS011;21464;48.112;11.530;2023-12-28T06:13:52;2.53;;;2.27;;
35364;SDS011;21464;48.112;11.530;2023-12-28T06:16:18;2.17;;;1.97;;
35364;SDS011;21464;48.112;11.530;2023-12-28T06:18:45;2.00;;;1.90;;
35364;SDS011;21464;48.112;11.530;2023-12-28T06:21:11;2.47;;;2.20;;
35364;SDS011;21464;48.112;11.530;2023-12-28T06:23:37;2.87;;;2.50;;
35364;SDS011;21464;48.112;11.530;2023-12-28T06:26:04;1.70;;;1.60;;
35364;SDS011;21464;48.112;11.530;2023-12-28T06:28:31;2.13;;;1.60;;
35364;SDS011;21464;48.112;11.530;2023-12-28T06:30:58;2.47;;;1.70;;
35364;SDS011;21464;48.112;11.530;2023-12-28T06:33:27;1.67;;;1.50;;
35364;SDS011;21464;48.112;11.530;2023-12-28T06:35:54;3.10;;;2.22;;
35364;SDS011;21464;48.112;11.530;2023-12-28T06:38:21;1.90;;;1.73;;
35364;SDS011;21464;48.112;11.530;2023-12-28T06:40:47;1.27;;;1.17;;
35364;SDS011;21464;48.112;11.530;2023-12-28T06:43:13;2.00;;;1.20;;
35364;SDS011;21464;48.112;11.530;2023-12-28T06:45:39;1.40;;;1.30;;
35364;SDS011;21464;48.112;11.530;2023-12-28T06:48:06;1.20;;;1.20;;
35364;SDS011;21464;48.112;11.530;2023-12-28T06:50:32;2.97;;;2.47;;
35364;SDS011;21464;48.112;11.530;2023-12-28T06:52:58;4.00;;;2.80;;
35364;SDS011;21464;48.112;11.530;2023-12-28T06:55:24;1.97;;;1.70;;
35364;SDS011;21464;48.112;11.530;2023-12-28T06:57:51;1.97;;;1.80;;
35364;SDS011;21464;48.112;11.530;2023-12-28T07:00:17;1.73;;;1.60;;
35364;SDS011;21464;48.112;11.530;2023-12-28T07:02:43;1.13;;;1.03;;
35364;SDS011;21464;48.112;11.530;2023-12-28T07:05:10;1.40;;;1.30;;
35364;SDS011;21464;48.112;11.530;2023-12-28T07:07:38;1.70;;;1.57;;
35364;SDS011;21464;48.112;11.530;2023-12-28T07:10:04;1.30;;;1.20;;
35364;SDS011;21464;48.112;11.530;2023-12-28T07:12:31;1.90;;;1.30;;
35364;SDS011;21464;48.112;11.530;2023-12-28T07:14:58;1.40;;;1.30;;
35364;SDS011;21464;48.112;11.530;2023-12-28T07:17:24;1.93;;;1.30;;
35364;SDS011;21464;48.112;11.530;2023-12-28T07:19:50;1.57;;;1.40;;
35364;SDS011;21464;48.112;11.530;2023-12-28T07:22:16;1.17;;;1.07;;
35364;SDS011;21464;48.112;11.530;2023-12-28T07:24:43;1.40;;;1.30;;
35364;SDS011;21464;48.112;11.530;2023-12-28T07:27:09;2.87;;;1.93;;
35364;SDS011;21464;48.112;11.530;2023-12-28T07:29:35;2.53;;;2.33;;
35364;SDS011;21464;48.112;11.530;2023-12-28T07:32:02;1.67;;;1.50;;
35364;SDS011;21464;48.112;11.530;2023-12-28T07:34:28;1.43;;;1.33;;
35364;SDS011;21464;48.112;11.530;2023-12-28T07:36:54;1.63;;;1.53;;
35364;SDS011;21464;48.112;11.530;2023-12-28T07:39:21;2.40;;;2.20;;
35364;SDS011;21464;48.112;11.530;2023-12-28T07:41:47;1.57;;;1.47;;
35364;SDS011;21464;48.112;11.530;2023-12-28T07:44:15;1.40;;;1.30;;
35364;SDS011;21464;48.112;11.530;2023-12-28T07:46:43;3.03;;;1.50;;
35364;SDS011;21464;48.112;11.530;2023-12-28T07:49:09;1.73;;;1.33;;
35364;SDS011;21464;48.112;11.530;2023-12-28T07:51:35;2.37;;;1.53;;
35364;SDS011;21464;48.112;11.530;2023-12-28T07:54:01;2.60;;;2.40;;
35364;SDS011;21464;48.112;11.530;2023-12-28T07:56:27;4.43;;;2.47;;
35364;SDS011;21464;48.112;11.530;2023-12-28T07:58:54;2.77;;;2.50;;
35364;SDS011;21464;48.112;11.530;2023-12-28T08:01:21;2.13;;;1.93;;
35364;SDS011;21464;48.112;11.530;2023-12-28T08:03:48;3.60;;;2.70;;
35364;SDS011;21464;48.112;11.530;2023-12-28T08:06:14;3.37;;;2.30;;
35364;SDS011;21464;48.112;11.530;2023-12-28T08:08:40;2.10;;;2.00;;
35364;SDS011;21464;48.112;11.530;2023-12-28T08:11:07;2.57;;;2.37;;
35364;SDS011;21464;48.112;11.530;2023-12-28T08:13:33;2.60;;;2.40;;
35364;SDS011;21464;48.112;11.530;2023-12-28T08:15:59;3.03;;;2.07;;
35364;SDS011;21464;48.112;11.530;2023-12-28T08:18:25;2.93;;;2.30;;
35364;SDS011;21464;48.112;11.530;2023-12-28T08:20:52;1.73;;;1.63;;
35364;SDS011;21464;48.112;11.530;2023-12-28T08:23:18;2.03;;;1.93;;
35364;SDS011;21464;48.112;11.530;2023-12-28T08:25:45;1.70;;;1.60;;
35364;SDS011;21464;48.112;11.530;2023-12-28T08:28:12;1.53;;;1.43;;
35364;SDS011;21464;48.112;11.530;2023-12-28T08:30:38;2.13;;;1.67;;
35364;SDS011;21464;48.112;11.530;2023-12-28T08:33:05;3.03;;;2.33;;
35364;SDS011;21464;48.112;11.530;2023-12-28T08:35:31;3.47;;;2.97;;
35364;SDS011;21464;48.112;11.530;2023-12-28T08:37:57;6.13;;;4.80;;
35364;SDS011;21464;48.112;11.530;2023-12-28T08:40:23;3.13;;;2.93;;
35364;SDS011;21464;48.112;11.530;2023-12-28T08:42:50;2.47;;;2.27;;
35364;SDS011;21464;48.112;11.530;2023-12-28T08:45:16;3.53;;;1.80;;
35364;SDS011;21464;48.112;11.530;2023-12-28T08:47:42;1.67;;;1.43;;
35364;SDS011;21464;48.112;11.530;2023-12-28T08:50:09;1.70;;;1.60;;
35364;SDS011;21464;48.112;11.530;2023-12-28T08:52:35;3.20;;;1.60;;
35364;SDS011;21464;48.112;11.530;2023-12-28T08:55:01;2.53;;;2.00;;
35364;SDS011;21464;48.112;11.530;2023-12-28T08:57:28;1.97;;;1.83;;
35364;SDS011;21464;48.112;11.530;2023-12-28T08:59:54;4.03;;;3.60;;
35364;SDS011;21464;48.112;11.530;2023-12-28T09:02:20;4.40;;;4.00;;
35364;SDS011;21464;48.112;11.530;2023-12-28T09:04:46;5.05;;;4.03;;
35364;SDS011;21464;48.112;11.530;2023-12-28T09:07:13;3.53;;;2.70;;
35364;SDS011;21464;48.112;11.530;2023-12-28T09:09:39;2.63;;;1.73;;
35364;SDS011;21464;48.112;11.530;2023-12-28T09:12:05;2.07;;;1.70;;
35364;SDS011;21464;48.112;11.530;2023-12-28T09:14:32;1.80;;;1.70;;
35364;SDS011;21464;48.112;11.530;2023-12-28T09:16:58;2.50;;;1.37;;
35364;SDS011;21464;48.112;11.530;2023-12-28T09:19:24;1.87;;;1.33;;
35364;SDS011;21464;48.112;11.530;2023-12-28T09:21:50;1.60;;;1.50;;
35364;SDS011;21464;48.112;11.530;2023-12-28T09:24:17;2.27;;;1.73;;
35364;SDS011;21464;48.112;11.530;2023-12-28T09:26:44;2.33;;;1.53;;
35364;SDS011;21464;48.112;11.530;2023-12-28T09:29:11;1.90;;;1.63;;
35364;SDS011;21464;48.112;11.530;2023-12-28T09:31:37;2.80;;;1.70;;
35364;SDS011;21464;48.112;11.530;2023-12-28T09:34:04;2.50;;;1.65;;
35364;SDS011;21464;48.112;11.530;2023-12-28T09:36:30;1.60;;;1.50;;
35364;SDS011;21464;48.112;11.530;2023-12-28T09:38:57;1.90;;;1.80;;
35364;SDS011;21464;48.112;11.530;2023-12-28T09:41:25;2.03;;;1.42;;
35364;SDS011;21464;48.112;11.530;2023-12-28T09:46:41;2.37;;;1.50;;
35364;SDS011;21464;48.112;11.530;2023-12-28T09:49:08;1.52;;;1.42;;
35364;SDS011;21464;48.112;11.530;2023-12-28T09:51:36;1.70;;;1.57;;
35364;SDS011;21464;48.112;11.530;2023-12-28T09:54:05;1.77;;;1.60;;
35364;SDS011;21464;48.112;11.530;2023-12-28T09:56:31;2.53;;;1.47;;
35364;SDS011;21464;48.112;11.530;2023-12-28T09:58:58;2.63;;;1.70;;
35364;SDS011;21464;48.112;11.530;2023-12-28T10:01:25;1.60;;;1.50;;
35364;SDS011;21464;48.112;11.530;2023-12-28T10:03:51;2.78;;;1.60;;
35364;SDS011;21464;48.112;11.530;2023-12-28T10:06:17;2.05;;;1.20;;
35364;SDS011;21464;48.112;11.530;2023-12-28T10:08:47;1.63;;;1.45;;
35364;SDS011;21464;48.112;11.530;2023-12-28T10:11:23;1.70;;;1.60;;
35364;SDS011;21464;48.112;11.530;2023-12-28T10:13:49;1.98;;;1.88;;
35364;SDS011;21464;48.112;11.530;2023-12-28T10:16:16;2.30;;;2.10;;
35364;SDS011;21464;48.112;11.530;2023-12-28T10:18:42;1.83;;;1.73;;
35364;SDS011;21464;48.112;11.530;2023-12-28T10:21:09;1.38;;;1.27;;
35364;SDS011;21464;48.112;11.530;2023-12-28T10:23:36;1.40;;;1.40;;
35364;SDS011;21464;48.112;11.530;2023-12-28T10:26:03;1.80;;;1.63;;
35364;SDS011;21464;48.112;11.530;2023-12-28T10:28:36;2.03;;;1.40;;
35364;SDS011;21464;48.112;11.530;2023-12-28T10:31:04;1.67;;;1.20;;
35364;SDS011;21464;48.112;11.530;2023-12-28T10:33:36;1.35;;;1.25;;
35364;SDS011;21464;48.112;11.530;2023-12-28T10:36:05;2.03;;;1.75;;
35364;SDS011;21464;48.112;11.530;2023-12-28T10:38:34;1.60;;;1.50;;
35364;SDS011;21464;48.112;11.530;2023-12-28T10:41:03;2.03;;;1.50;;
35364;SDS011;21464;48.112;11.530;2023-12-28T10:46:21;1.50;;;1.40;;
35364;SDS011;21464;48.112;11.530;2023-12-28T10:48:57;1.63;;;1.15;;
35364;SDS011;21464;48.112;11.530;2023-12-28T10:51:44;1.42;;;1.33;;
35364;SDS011;21464;48.112;11.530;2023-12-28T10:56:50;1.48;;;1.38;;
35364;SDS011;21464;48.112;11.530;2023-12-28T11:02:07;1.80;;;1.30;;
35364;SDS011;21464;48.112;11.530;2023-12-28T11:04:46;0.98;;;0.98;;
35364;SDS011;21464;48.112;11.530;2023-12-28T11:07:15;1.80;;;1.30;;
35364;SDS011;21464;48.112;11.530;2023-12-28T11:09:43;1.30;;;1.20;;
35364;SDS011;21464;48.112;11.530;2023-12-28T11:12:10;1.40;;;1.30;;
35364;SDS011;21464;48.112;11.530;2023-12-28T11:14:40;0.95;;;0.95;;
35364;SDS011;21464;48.112;11.530;2023-12-28T11:17:11;0.90;;;0.90;;
35364;SDS011;21464;48.112;11.530;2023-12-28T11:19:37;1.25;;;1.17;;
35364;SDS011;21464;48.112;11.530;2023-12-28T11:22:04;2.95;;;1.10;;
35364;SDS011;21464;48.112;11.530;2023-12-28T11:24:31;1.00;;;1.00;;
35364;SDS011;21464;48.112;11.530;2023-12-28T11:26:58;2.25;;;1.33;;
35364;SDS011;21464;48.112;11.530;2023-12-28T11:29:24;1.10;;;1.10;;
35364;SDS011;21464;48.112;11.530;2023-12-28T11:31:51;1.00;;;1.00;;
35364;SDS011;21464;48.112;11.530;2023-12-28T11:34:17;3.80;;;2.30;;
35364;SDS011;21464;48.112;11.530;2023-12-28T11:36:46;1.65;;;1.10;;
35364;SDS011;21464;48.112;11.530;2023-12-28T11:39:17;1.30;;;1.20;;
35364;SDS011;21464;48.112;11.530;2023-12-28T11:41:47;1.42;;;1.33;;
35364;SDS011;21464;48.112;11.530;2023-12-28T11:44:13;1.65;;;1.40;;
35364;SDS011;21464;48.112;11.530;2023-12-28T11:46:43;1.75;;;1.40;;
35364;SDS011;21464;48.112;11.530;2023-12-28T11:49:09;1.38;;;1.27;;
35364;SDS011;21464;48.112;11.530;2023-12-28T11:51:36;2.05;;;1.20;;
35364;SDS011;21464;48.112;11.530;2023-12-28T11:54:04;1.20;;;1.10;;
35364;SDS011;21464;48.112;11.530;2023-12-28T11:56:31;1.83;;;1.30;;
35364;SDS011;21464;48.112;11.530;2023-12-28T11:58:58;1.63;;;1.20;;
35364;SDS011;21464;48.112;11.530;2023-12-28T12:01:25;1.30;;;1.20;;
35364;SDS011;21464;48.112;11.530;2023-12-28T12:03:51;1.38;;;1.27;;
35364;SDS011;21464;48.112;11.530;2023-12-28T12:06:18;1.42;;;1.10;;
35364;SDS011;21464;48.112;11.530;2023-12-28T12:08:45;1.40;;;1.30;;
35364;SDS011;21464;48.112;11.530;2023-12-28T12:11:16;2.13;;;1.20;;
35364;SDS011;21464;48.112;11.530;2023-12-28T12:13:43;1.23;;;1.20;;
35364;SDS011;21464;48.112;11.530;2023-12-28T12:16:09;1.23;;;1.17;;
35364;SDS011;21464;48.112;11.530;2023-12-28T12:18:36;1.17;;;1.02;;
35364;SDS011;21464;48.112;11.530;2023-12-28T12:21:02;1.40;;;1.30;;
35364;SDS011;21464;48.112;11.530;2023-12-28T12:23:28;1.40;;;1.30;;
35364;SDS011;21464;48.112;11.530;2023-12-28T12:25:55;1.40;;;1.30;;
35364;SDS011;21464;48.112;11.530;2023-12-28T12:28:21;1.63;;;1.38;;
35364;SDS011;21464;48.112;11.530;2023-12-28T12:30:51;1.48;;;1.38;;
35364;SDS011;21464;48.112;11.530;2023-12-28T12:33:20;1.60;;;1.50;;
35364;SDS011;21464;48.112;11.530;2023-12-28T12:35:46;1.80;;;1.45;;
35364;SDS011;21464;48.112;11.530;2023-12-28T12:38:13;1.70;;;1.60;;
35364;SDS011;21464;48.112;11.530;2023-12-28T12:40:39;2.15;;;1.73;;
35364;SDS011;21464;48.112;11.530;2023-12-28T12:43:06;2.05;;;1.25;;
35364;SDS011;21464;48.112;11.530;2023-12-28T12:45:34;2.70;;;1.50;;
35364;SDS011;21464;48.112;11.530;2023-12-28T12:48:05;2.80;;;1.83;;
35364;SDS011;21464;48.112;11.530;2023-12-28T12:50:31;1.63;;;1.52;;
35364;SDS011;21464;48.112;11.530;2023-12-28T12:52:59;1.77;;;1.50;;
35364;SDS011;21464;48.112;11.530;2023-12-28T12:55:26;1.52;;;1.42;;
35364;SDS011;21464;48.112;11.530;2023-12-28T12:57:52;1.38;;;1.27;;
35364;SDS011;21464;48.112;11.530;2023-12-28T13:00:22;1.27;;;1.20;;
35364;SDS011;21464;48.112;11.530;2023-12-28T13:02:51;1.75;;;1.20;;
35364;SDS011;21464;48.112;11.530;2023-12-28T13:05:19;2.25;;;1.50;;
35364;SDS011;21464;48.112;11.530;2023-12-28T13:07:45;1.40;;;1.30;;
35364;SDS011;21464;48.112;11.530;2023-12-28T13:10:11;1.63;;;1.42;;
35364;SDS011;21464;48.112;11.530;2023-12-28T13:12:38;1.73;;;1.30;;
35364;SDS011;21464;48.112;11.530;2023-12-28T13:15:04;2.70;;;2.25;;
35364;SDS011;21464;48.112;11.530;2023-12-28T13:17:32;1.13;;;1.00;;
35364;SDS011;21464;48.112;11.530;2023-12-28T13:19:58;2.85;;;1.48;;
35364;SDS011;21464;48.112;11.530;2023-12-28T13:22:24;2.80;;;1.50;;
35364;SDS011;21464;48.112;11.530;2023-12-28T13:24:52;1.50;;;1.40;;
35364;SDS011;21464;48.112;11.530;2023-12-28T13:27:18;1.30;;;1.23;;
35364;SDS011;21464;48.112;11.530;2023-12-28T13:29:44;1.30;;;1.30;;
35364;SDS011;21464;48.112;11.530;2023-12-28T13:32:11;2.13;;;1.30;;
35364;SDS011;21464;48.112;11.530;2023-12-28T13:34:37;1.95;;;1.58;;
35364;SDS011;21464;48.112;11.530;2023-12-28T13:37:03;1.35;;;1.25;;
35364;SDS011;21464;48.112;11.530;2023-12-28T13:39:30;1.67;;;1.58;;
35364;SDS011;21464;48.112;11.530;2023-12-28T13:41:57;1.50;;;1.40;;
35364;SDS011;21464;48.112;11.530;2023-12-28T13:44:23;1.90;;;1.50;;
35364;SDS011;21464;48.112;11.530;2023-12-28T13:46:49;1.30;;;1.20;;
35364;SDS011;21464;48.112;11.530;2023-12-28T13:49:15;2.08;;;1.60;;
35364;SDS011;21464;48.112;11.530;2023-12-28T13:51:42;2.45;;;1.50;;
35364;SDS011;21464;48.112;11.530;2023-12-28T13:54:08;1.70;;;1.60;;
35364;SDS011;21464;48.112;11.530;2023-12-28T13:56:34;1.38;;;1.27;;
35364;SDS011;21464;48.112;11.530;2023-12-28T13:59:01;1.17;;;1.17;;
35364;SDS011;21464;48.112;11.530;2023-12-28T14:01:27;3.15;;;1.52;;
35364;SDS011;21464;48.112;11.530;2023-12-28T14:03:53;1.45;;;1.30;;
35364;SDS011;21464;48.112;11.530;2023-12-28T14:06:19;1.80;;;1.70;;
35364;SDS011;21464;48.112;11.530;2023-12-28T14:08:46;1.92;;;1.50;;
35364;SDS011;21464;48.112;11.530;2023-12-28T14:11:12;2.17;;;1.67;;
35364;SDS011;21464;48.112;11.530;2023-12-28T14:13:38;3.10;;;1.40;;
35364;SDS011;21464;48.112;11.530;2023-12-28T14:16:05;2.00;;;1.80;;
35364;SDS011;21464;48.112;11.530;2023-12-28T14:18:31;1.58;;;1.48;;
35364;SDS011;21464;48.112;11.530;2023-12-28T14:20:57;1.80;;;1.50;;
35364;SDS011;21464;48.112;11.530;2023-12-28T14:23:24;2.40;;;1.88;;
35364;SDS011;21464;48.112;11.530;2023-12-28T14:25:50;2.20;;;1.60;;
35364;SDS011;21464;48.112;11.530;2023-12-28T14:28:22;3.58;;;2.90;;
35364;SDS011;21464;48.112;11.530;2023-12-28T14:30:52;2.00;;;1.80;;
35364;SDS011;21464;48.112;11.530;2023-12-28T14:33:19;2.03;;;1.67;;
35364;SDS011;21464;48.112;11.530;2023-12-28T14:35:45;2.95;;;1.80;;
35364;SDS011;21464;48.112;11.530;2023-12-28T14:38:12;4.55;;;3.22;;
35364;SDS011;21464;48.112;11.530;2023-12-28T14:40:39;3.75;;;2.20;;
35364;SDS011;21464;48.112;11.530;2023-12-28T14:43:05;2.30;;;2.10;;